createdAt,value
2017-07-10T00:01:21.233Z,22.00
2017-07-10T00:03:49.585Z,22.00
2017-07-10T00:06:17.887Z,21.90
2017-07-10T00:08:46.187Z,21.90
2017-07-10T00:11:14.523Z,22.00
2017-07-10T00:13:43.594Z,21.90
2017-07-10T00:16:11.882Z,21.90
2017-07-10T00:18:40.223Z,21.90
2017-07-10T00:21:08.514Z,21.90
2017-07-10T00:23:36.811Z,21.90
2017-07-10T00:26:05.141Z,21.80
2017-07-10T00:28:33.429Z,21.80
2017-07-10T00:31:01.721Z,21.80
2017-07-10T00:33:30.100Z,21.80
2017-07-10T00:35:58.393Z,21.80
2017-07-10T00:38:26.685Z,21.80
2017-07-10T00:40:55.021Z,21.90
2017-07-10T00:43:23.318Z,21.90
2017-07-10T00:45:51.610Z,21.90
2017-07-10T00:48:19.966Z,21.80
2017-07-10T00:50:48.255Z,21.70
2017-07-10T00:53:16.548Z,21.70
2017-07-10T00:55:44.890Z,21.70
2017-07-10T00:58:13.182Z,21.80
2017-07-10T01:00:41.480Z,21.80
2017-07-10T01:03:09.835Z,21.90
2017-07-10T01:05:38.130Z,21.90
2017-07-10T01:08:06.423Z,22.00
2017-07-10T01:10:35.543Z,22.00
2017-07-10T01:13:04.611Z,22.00
2017-07-10T01:15:32.915Z,22.00
2017-07-10T01:18:01.247Z,22.00
2017-07-10T01:20:29.574Z,22.10
2017-07-10T01:22:57.879Z,22.10
2017-07-10T01:25:26.212Z,22.10
2017-07-10T01:27:54.510Z,22.10
2017-07-10T01:30:22.841Z,22.10
2017-07-10T01:32:51.139Z,22.10
2017-07-10T01:35:19.473Z,22.10
2017-07-10T01:37:47.803Z,22.00
2017-07-10T01:40:16.870Z,21.90
2017-07-10T01:42:45.210Z,21.90
2017-07-10T01:45:14.272Z,21.80
2017-07-10T01:47:42.588Z,21.80
2017-07-10T01:50:10.931Z,21.80
2017-07-10T01:52:39.233Z,21.70
2017-07-10T01:55:07.575Z,21.70
2017-07-10T01:57:35.885Z,21.70
2017-07-10T02:00:05.186Z,21.60
2017-07-10T02:02:33.526Z,21.60
2017-07-10T02:05:01.822Z,21.60
2017-07-10T02:07:30.123Z,21.60
2017-07-10T02:09:58.476Z,21.60
2017-07-10T02:12:26.781Z,21.70
2017-07-10T02:14:55.102Z,21.70
2017-07-10T02:17:24.172Z,21.70
2017-07-10T02:19:52.503Z,21.70
2017-07-10T02:22:20.841Z,21.70
2017-07-10T02:24:49.901Z,21.70
2017-07-10T02:27:18.202Z,21.70
2017-07-10T02:29:46.535Z,21.80
2017-07-10T02:32:14.836Z,21.80
2017-07-10T02:34:43.165Z,21.80
2017-07-10T02:37:12.257Z,21.80
2017-07-10T02:39:40.591Z,21.80
2017-07-10T02:42:09.831Z,21.80
2017-07-10T02:44:38.165Z,21.70
2017-07-10T02:47:06.463Z,21.70
2017-07-10T02:49:34.799Z,21.70
2017-07-10T02:52:03.100Z,21.60
2017-07-10T02:54:31.395Z,21.50
2017-07-10T02:56:59.731Z,21.50
2017-07-10T02:59:28.798Z,21.50
2017-07-10T03:01:57.139Z,21.50
2017-07-10T03:04:25.440Z,21.50
2017-07-10T03:06:53.749Z,21.50
2017-07-10T03:09:22.101Z,21.40
2017-07-10T03:11:50.410Z,21.40
2017-07-10T03:14:19.175Z,21.30
2017-07-10T03:16:47.431Z,21.30
2017-07-10T03:19:15.723Z,21.10
2017-07-10T03:21:44.079Z,21.10
2017-07-10T03:24:12.385Z,21.20
2017-07-10T03:26:40.681Z,21.20
2017-07-10T03:29:09.221Z,21.10
2017-07-10T03:31:37.525Z,21.10
2017-07-10T03:34:06.591Z,21.10
2017-07-10T03:36:34.923Z,21.10
2017-07-10T03:39:03.222Z,21.10
2017-07-10T03:41:31.551Z,21.00
2017-07-10T03:44:00.619Z,20.90
2017-07-10T03:46:28.953Z,20.90
2017-07-10T03:48:57.254Z,20.90
2017-07-10T03:51:25.617Z,20.80
2017-07-10T03:53:53.915Z,20.80
2017-07-10T03:56:22.210Z,21.00
2017-07-10T03:58:50.542Z,21.10
2017-07-10T04:01:18.839Z,21.10
2017-07-10T04:03:47.173Z,21.10
2017-07-10T04:06:15.475Z,21.00
2017-07-10T04:08:43.811Z,21.00
2017-07-10T04:11:12.919Z,21.10
2017-07-10T04:13:41.231Z,21.10
2017-07-10T04:16:09.563Z,21.10
2017-07-10T04:18:37.859Z,21.20
2017-07-10T04:21:06.163Z,21.20
2017-07-10T04:23:34.491Z,21.20
2017-07-10T04:26:02.782Z,21.20
2017-07-10T04:28:31.132Z,21.40
2017-07-10T04:31:00.402Z,21.40
2017-07-10T04:33:28.748Z,21.40
2017-07-10T04:35:57.046Z,21.40
2017-07-10T04:38:25.344Z,21.40
2017-07-10T04:40:53.677Z,21.30
2017-07-10T04:43:22.813Z,21.50
2017-07-10T04:45:51.166Z,21.40
2017-07-10T04:48:19.462Z,21.40
2017-07-10T04:50:47.789Z,21.30
2017-07-10T04:53:16.088Z,21.30
2017-07-10T04:55:44.483Z,21.20
2017-07-10T04:58:12.784Z,21.30
2017-07-10T05:00:41.144Z,21.30
2017-07-10T05:03:10.225Z,21.50
2017-07-10T05:05:38.559Z,21.50
2017-07-10T05:08:07.638Z,21.50
2017-07-10T05:10:35.974Z,21.40
2017-07-10T05:13:04.314Z,21.40
2017-07-10T05:15:32.619Z,21.40
2017-07-10T05:18:00.945Z,21.50
2017-07-10T05:20:29.270Z,21.50
2017-07-10T05:22:57.563Z,21.50
2017-07-10T05:25:25.982Z,21.50
2017-07-10T05:27:54.311Z,21.50
2017-07-10T05:30:23.374Z,21.50
2017-07-10T05:32:51.702Z,21.50
2017-07-10T05:35:20.821Z,21.40
2017-07-10T05:37:49.155Z,21.40
2017-07-10T05:40:18.266Z,21.40
2017-07-10T05:42:46.569Z,21.40
2017-07-10T05:45:14.911Z,21.50
2017-07-10T05:47:43.466Z,21.50
2017-07-10T05:50:11.769Z,21.60
2017-07-10T05:52:40.264Z,21.60
2017-07-10T05:55:08.588Z,21.50
2017-07-10T05:57:36.950Z,21.50
2017-07-10T06:00:05.289Z,21.60
2017-07-10T06:02:33.582Z,21.60
2017-07-10T06:05:01.871Z,21.50
2017-07-10T06:07:30.220Z,21.30
2017-07-10T06:09:58.551Z,21.20
2017-07-10T06:12:27.608Z,21.00
2017-07-10T06:14:55.907Z,21.00
2017-07-10T06:17:24.230Z,21.00
2017-07-10T06:19:52.526Z,20.90
2017-07-10T06:22:21.026Z,20.90
2017-07-10T06:24:49.322Z,20.80
2017-07-10T06:27:17.609Z,20.70
2017-07-10T06:29:45.930Z,20.70
2017-07-10T06:32:14.224Z,20.60
2017-07-10T06:34:42.573Z,20.50
2017-07-10T06:37:10.981Z,20.50
2017-07-10T06:39:39.326Z,20.60
2017-07-10T06:42:07.618Z,20.60
2017-07-10T06:44:36.674Z,20.70
2017-07-10T06:47:05.003Z,20.70
2017-07-10T06:49:34.067Z,20.90
2017-07-10T06:52:02.383Z,20.80
2017-07-10T06:54:30.714Z,20.90
2017-07-10T06:56:59.082Z,21.00
2017-07-10T06:59:27.386Z,21.00
2017-07-10T07:01:55.678Z,21.10
2017-07-10T07:04:24.007Z,21.10
2017-07-10T07:06:52.297Z,21.20
2017-07-10T07:09:21.457Z,21.30
2017-07-10T07:11:50.546Z,21.40
2017-07-10T07:14:18.838Z,21.40
2017-07-10T07:16:47.268Z,21.20
2017-07-10T07:19:15.570Z,21.00
2017-07-10T07:21:43.991Z,21.00
2017-07-10T07:24:12.497Z,21.00
2017-07-10T07:26:40.788Z,21.00
2017-07-10T07:29:09.242Z,21.00
2017-07-10T07:31:38.301Z,20.90
2017-07-10T07:34:06.745Z,20.90
2017-07-10T07:36:35.809Z,20.80
2017-07-10T07:39:04.661Z,20.90
2017-07-10T07:41:33.632Z,20.90
2017-07-10T07:44:01.961Z,20.90
2017-07-10T07:46:31.074Z,21.00
2017-07-10T07:48:59.374Z,20.90
2017-07-10T07:51:27.671Z,21.00
2017-07-10T07:53:55.992Z,21.00
2017-07-10T07:56:24.282Z,21.00
2017-07-10T07:58:52.906Z,21.00
2017-07-10T08:01:22.642Z,21.00
2017-07-10T08:03:50.962Z,21.10
2017-07-10T08:06:19.474Z,21.20
2017-07-10T08:08:47.773Z,21.30
2017-07-10T08:11:16.834Z,21.60
2017-07-10T08:13:45.274Z,21.60
2017-07-10T08:16:13.574Z,21.70
2017-07-10T08:18:41.878Z,21.80
2017-07-10T08:21:10.490Z,22.00
2017-07-10T08:23:38.778Z,22.20
2017-07-10T08:26:07.842Z,23.30
2017-07-10T08:28:36.169Z,23.30
2017-07-10T08:31:04.467Z,23.90
2017-07-10T08:33:32.777Z,24.00
2017-07-10T08:36:01.121Z,24.00
2017-07-10T08:38:30.215Z,24.50
2017-07-10T08:40:58.593Z,24.50
2017-07-10T08:43:26.919Z,25.10
2017-07-10T08:45:55.216Z,25.70
2017-07-10T08:48:23.545Z,26.10
2017-07-10T08:50:51.879Z,27.10
2017-07-10T08:53:20.226Z,27.60
2017-07-10T08:55:48.518Z,27.40
2017-07-10T08:58:16.822Z,26.90
2017-07-10T09:00:45.156Z,26.30
2017-07-10T09:03:14.214Z,25.80
2017-07-10T09:05:42.533Z,25.70
2017-07-10T09:08:10.821Z,25.60
2017-07-10T09:10:39.146Z,25.50
2017-07-10T09:13:07.442Z,25.30
2017-07-10T09:15:35.779Z,25.10
2017-07-10T09:18:04.122Z,25.10
2017-07-10T09:20:33.208Z,25.30
2017-07-10T09:23:01.497Z,25.20
2017-07-10T09:25:29.841Z,25.30
2017-07-10T09:27:58.126Z,25.40
2017-07-10T09:30:26.419Z,25.60
2017-07-10T09:32:54.769Z,26.00
2017-07-10T09:35:23.069Z,26.50
2017-07-10T09:37:52.385Z,26.90
2017-07-10T09:40:20.749Z,26.90
2017-07-10T09:42:49.822Z,27.30
2017-07-10T09:45:18.122Z,27.30
2017-07-10T09:47:46.781Z,27.70
2017-07-10T09:50:15.837Z,27.80
2017-07-10T09:52:44.126Z,27.80
2017-07-10T09:55:13.650Z,27.90
2017-07-10T09:57:41.942Z,27.90
2017-07-10T10:00:10.267Z,27.90
2017-07-10T10:02:39.721Z,28.00
2017-07-10T10:05:08.013Z,28.00
2017-07-10T10:07:36.311Z,27.80
2017-07-10T10:10:04.651Z,27.60
2017-07-10T10:12:32.973Z,27.70
2017-07-10T10:15:01.269Z,27.70
2017-07-10T10:17:30.566Z,27.40
2017-07-10T10:19:58.862Z,27.60
2017-07-10T10:22:27.157Z,27.50
2017-07-10T10:24:56.599Z,27.10
2017-07-10T10:27:24.898Z,27.10
2017-07-10T10:29:53.197Z,27.00
2017-07-10T10:32:21.534Z,26.90
2017-07-10T10:34:49.872Z,27.00
2017-07-10T10:37:18.162Z,26.90
2017-07-10T10:39:46.458Z,26.80
2017-07-10T10:42:14.801Z,26.70
2017-07-10T10:44:43.873Z,26.40
2017-07-10T10:47:12.161Z,26.40
2017-07-10T10:49:40.557Z,26.20
2017-07-10T10:52:08.952Z,26.10
2017-07-10T10:54:37.373Z,26.20
2017-07-10T10:57:06.542Z,26.40
2017-07-10T10:59:35.017Z,26.40
2017-07-10T11:02:03.401Z,26.40
2017-07-10T11:04:32.502Z,26.60
2017-07-10T11:07:00.942Z,26.50
2017-07-10T11:09:29.998Z,26.30
2017-07-10T11:11:58.365Z,26.30
2017-07-10T11:14:27.428Z,26.20
2017-07-10T11:16:55.732Z,26.20
2017-07-10T11:19:24.066Z,26.30
2017-07-10T11:21:52.400Z,26.60
2017-07-10T11:24:20.694Z,26.70
2017-07-10T11:26:49.805Z,26.50
2017-07-10T11:29:18.864Z,26.50
2017-07-10T11:31:47.162Z,26.50
2017-07-10T11:34:15.621Z,26.50
2017-07-10T11:36:44.054Z,26.40
2017-07-10T11:39:13.117Z,26.30
2017-07-10T11:41:41.448Z,26.30
2017-07-10T11:44:09.823Z,26.20
2017-07-10T11:46:38.124Z,26.10
2017-07-10T11:49:06.621Z,25.90
2017-07-10T11:51:35.503Z,25.80
2017-07-10T11:54:05.566Z,25.50
2017-07-10T11:56:33.870Z,25.50
2017-07-10T11:59:02.285Z,25.40
2017-07-10T12:01:30.807Z,25.40
2017-07-10T12:03:59.095Z,25.40
2017-07-10T12:06:27.439Z,25.50
2017-07-10T12:08:56.086Z,25.80
2017-07-10T12:11:25.150Z,26.40
2017-07-10T12:13:53.563Z,26.40
2017-07-10T12:16:22.163Z,26.40
2017-07-10T12:18:50.476Z,26.50
2017-07-10T12:21:18.793Z,26.60
2017-07-10T12:23:47.154Z,26.70
2017-07-10T12:26:15.455Z,26.70
2017-07-10T12:28:43.766Z,26.80
2017-07-10T12:31:12.103Z,26.70
2017-07-10T12:33:40.412Z,26.60
2017-07-10T12:36:08.757Z,26.50
2017-07-10T12:38:37.063Z,26.40
2017-07-10T12:41:05.363Z,26.40
2017-07-10T12:43:33.702Z,26.40
2017-07-10T12:46:01.999Z,26.50
2017-07-10T12:48:30.290Z,26.60
2017-07-10T12:50:58.613Z,26.50
2017-07-10T12:53:27.003Z,26.30
2017-07-10T12:55:55.409Z,25.90
2017-07-10T12:58:23.827Z,25.60
2017-07-10T13:00:52.226Z,25.20
2017-07-10T13:03:20.573Z,24.80
2017-07-10T13:05:49.640Z,24.00
2017-07-10T13:08:17.966Z,23.90
2017-07-10T13:10:46.292Z,23.50
2017-07-10T13:13:14.596Z,22.90
2017-07-10T13:15:42.939Z,22.40
2017-07-10T13:18:11.246Z,22.10
2017-07-10T13:20:39.546Z,21.80
2017-07-10T13:23:07.878Z,21.70
2017-07-10T13:25:36.172Z,21.80
2017-07-10T13:28:04.795Z,22.00
2017-07-10T13:30:33.087Z,22.10
2017-07-10T13:33:01.385Z,22.40
2017-07-10T13:35:29.721Z,22.60
2017-07-10T13:37:58.018Z,22.80
2017-07-10T13:40:26.309Z,23.00
2017-07-10T13:42:54.664Z,23.30
2017-07-10T13:45:22.963Z,23.70
2017-07-10T13:47:51.260Z,24.00
2017-07-10T13:50:19.602Z,24.30
2017-07-10T13:52:47.901Z,24.40
2017-07-10T13:55:16.205Z,24.60
2017-07-10T13:57:44.531Z,24.70
2017-07-10T14:00:12.832Z,24.90
2017-07-10T14:02:41.174Z,25.00
2017-07-10T14:05:09.711Z,25.10
2017-07-10T14:07:38.007Z,25.30
2017-07-10T14:10:06.295Z,25.50
2017-07-10T14:12:34.646Z,25.50
2017-07-10T14:15:03.067Z,25.70
2017-07-10T14:17:31.362Z,25.70
2017-07-10T14:19:59.759Z,25.80
2017-07-10T14:22:28.057Z,25.80
2017-07-10T14:24:56.346Z,25.90
2017-07-10T14:27:24.673Z,25.90
2017-07-10T14:29:52.967Z,25.90
2017-07-10T14:32:21.318Z,25.90
2017-07-10T14:34:50.377Z,25.80
2017-07-10T14:37:18.671Z,25.80
2017-07-10T14:39:47.079Z,25.80
2017-07-10T14:42:15.374Z,25.80
2017-07-10T14:44:43.682Z,25.90
2017-07-10T14:47:12.052Z,26.10
2017-07-10T14:49:41.123Z,26.30
2017-07-10T14:52:09.427Z,26.30
2017-07-10T14:54:37.746Z,26.30
2017-07-10T14:57:06.044Z,26.30
2017-07-10T14:59:34.395Z,26.30
2017-07-10T15:02:03.469Z,26.50
2017-07-10T15:04:31.774Z,26.50
2017-07-10T15:07:00.104Z,26.60
2017-07-10T15:09:29.225Z,26.70
2017-07-10T15:11:57.554Z,26.70
2017-07-10T15:14:26.612Z,26.70
2017-07-10T15:16:54.943Z,26.70
2017-07-10T15:19:23.242Z,26.80
2017-07-10T15:21:51.567Z,26.80
2017-07-10T15:24:20.634Z,26.40
2017-07-10T15:26:48.987Z,26.40
2017-07-10T15:29:17.277Z,26.30
2017-07-10T15:31:45.579Z,26.20
2017-07-10T15:34:13.947Z,26.20
2017-07-10T15:36:42.243Z,26.40
2017-07-10T15:39:10.566Z,26.50
2017-07-10T15:41:38.846Z,26.50
2017-07-10T15:44:07.191Z,26.40
2017-07-10T15:46:35.486Z,26.30
2017-07-10T15:49:03.794Z,26.30
2017-07-10T15:51:32.146Z,26.20
2017-07-10T15:54:00.482Z,26.10
2017-07-10T15:56:28.808Z,26.00
2017-07-10T15:58:57.878Z,25.80
2017-07-10T16:01:26.227Z,25.80
2017-07-10T16:03:54.624Z,25.80
2017-07-10T16:06:22.943Z,25.80
2017-07-10T16:08:51.313Z,25.60
2017-07-10T16:11:19.608Z,25.50
2017-07-10T16:13:47.942Z,25.30
2017-07-10T16:16:16.238Z,25.20
2017-07-10T16:18:44.534Z,25.10
2017-07-10T16:21:12.859Z,25.00
2017-07-10T16:23:41.166Z,24.90
2017-07-10T16:26:10.269Z,24.70
2017-07-10T16:28:38.564Z,24.70
2017-07-10T16:31:06.893Z,24.60
2017-07-10T16:33:35.954Z,24.50
2017-07-10T16:36:04.272Z,24.50
2017-07-10T16:38:32.676Z,24.50
2017-07-10T16:41:01.002Z,24.60
2017-07-10T16:43:29.289Z,24.60
2017-07-10T16:45:57.597Z,24.60
2017-07-10T16:48:25.979Z,24.70
2017-07-10T16:50:54.305Z,24.70
2017-07-10T16:53:22.629Z,24.70
2017-07-10T16:55:50.928Z,24.60
2017-07-10T16:58:19.263Z,24.50
2017-07-10T17:00:47.573Z,24.40
2017-07-10T17:03:15.898Z,24.40
2017-07-10T17:05:44.225Z,24.40
2017-07-10T17:08:12.566Z,24.40
2017-07-10T17:10:40.882Z,24.40
2017-07-10T17:13:09.185Z,24.40
2017-07-10T17:15:37.507Z,24.30
2017-07-10T17:18:05.811Z,24.30
2017-07-10T17:20:34.280Z,24.30
2017-07-10T17:23:02.645Z,24.30
2017-07-10T17:25:30.965Z,24.20
2017-07-10T17:27:59.274Z,24.10
2017-07-10T17:30:28.374Z,23.90
2017-07-10T17:32:56.673Z,23.90
2017-07-10T17:35:24.971Z,23.80
2017-07-10T17:37:53.321Z,23.70
2017-07-10T17:40:21.640Z,23.70
2017-07-10T17:42:49.967Z,23.60
2017-07-10T17:45:18.255Z,23.70
2017-07-10T17:47:46.603Z,23.70
2017-07-10T17:50:14.904Z,23.70
2017-07-10T17:52:43.199Z,23.70
2017-07-10T17:55:11.545Z,23.70
2017-07-10T17:57:39.837Z,23.80
2017-07-10T18:00:08.949Z,23.80
2017-07-10T18:02:37.309Z,23.80
2017-07-10T18:05:05.562Z,23.80
2017-07-10T18:07:33.890Z,23.80
2017-07-10T18:10:02.953Z,23.70
2017-07-10T18:12:31.291Z,23.70
2017-07-10T18:15:00.362Z,23.70
2017-07-10T18:17:28.725Z,23.70
2017-07-10T18:19:57.021Z,23.80
2017-07-10T18:22:25.338Z,23.80
2017-07-10T18:24:53.716Z,23.90
2017-07-10T18:27:22.058Z,23.90
2017-07-10T18:29:51.111Z,24.00
2017-07-10T18:32:19.439Z,23.90
2017-07-10T18:34:47.781Z,24.00
2017-07-10T18:37:16.850Z,23.90
2017-07-10T18:39:45.209Z,23.90
2017-07-10T18:42:14.283Z,23.90
2017-07-10T18:44:42.627Z,23.90
2017-07-10T18:47:10.980Z,23.80
2017-07-10T18:49:39.277Z,23.80
2017-07-10T18:52:07.602Z,23.70
2017-07-10T18:54:35.947Z,23.70
2017-07-10T18:57:04.245Z,23.60
2017-07-10T18:59:33.350Z,23.40
2017-07-10T19:02:01.644Z,23.40
2017-07-10T19:04:29.953Z,23.30
2017-07-10T19:06:58.274Z,23.20
2017-07-10T19:09:27.361Z,23.20
2017-07-10T19:11:55.703Z,23.20
2017-07-10T19:14:24.003Z,23.10
2017-07-10T19:16:53.099Z,22.90
2017-07-10T19:19:21.452Z,22.90
2017-07-10T19:21:49.748Z,22.80
2017-07-10T19:24:18.807Z,22.70
2017-07-10T19:26:47.135Z,22.70
2017-07-10T19:29:15.501Z,22.70
2017-07-10T19:31:43.810Z,22.60
2017-07-10T19:34:12.114Z,22.50
2017-07-10T19:36:40.449Z,22.50
2017-07-10T19:39:08.737Z,22.50
2017-07-10T19:41:37.181Z,22.40
2017-07-10T19:44:05.971Z,22.30
2017-07-10T19:46:34.293Z,22.30
2017-07-10T19:49:02.589Z,22.30
2017-07-10T19:51:30.927Z,22.20
2017-07-10T19:54:00.032Z,22.20
2017-07-10T19:56:29.167Z,22.20
2017-07-10T19:58:58.224Z,22.20
2017-07-10T20:01:26.690Z,22.20
2017-07-10T20:03:55.035Z,22.10
2017-07-10T20:06:23.361Z,22.10
2017-07-10T20:08:51.678Z,22.00
2017-07-10T20:11:20.041Z,22.00
2017-07-10T20:13:48.450Z,22.00
2017-07-10T20:16:16.737Z,22.00
2017-07-10T20:18:45.062Z,21.90
2017-07-10T20:21:13.353Z,21.90
2017-07-10T20:23:41.674Z,21.90
2017-07-10T20:26:10.007Z,21.90
2017-07-10T20:28:39.057Z,21.90
2017-07-10T20:31:07.482Z,21.90
2017-07-10T20:33:35.779Z,22.00
2017-07-10T20:36:04.103Z,22.00
2017-07-10T20:38:32.432Z,21.90
2017-07-10T20:41:01.543Z,21.90
2017-07-10T20:43:30.619Z,22.00
2017-07-10T20:45:58.917Z,22.00
2017-07-10T20:48:27.258Z,22.00
2017-07-10T20:50:55.575Z,22.00
2017-07-10T20:53:24.640Z,21.90
2017-07-10T20:55:52.957Z,21.80
2017-07-10T20:58:21.265Z,21.80
2017-07-10T21:00:49.598Z,21.80
2017-07-10T21:03:17.885Z,21.80
2017-07-10T21:05:46.315Z,21.70
2017-07-10T21:08:15.395Z,21.70
2017-07-10T21:10:43.714Z,21.70
2017-07-10T21:13:12.058Z,21.60
2017-07-10T21:15:40.404Z,21.60
2017-07-10T21:18:08.882Z,21.60
2017-07-10T21:20:37.202Z,21.60
2017-07-10T21:23:05.578Z,21.60
2017-07-10T21:25:36.634Z,21.50
2017-07-10T21:28:04.998Z,21.60
2017-07-10T21:30:34.109Z,21.60
2017-07-10T21:33:02.409Z,21.50
2017-07-10T21:35:30.736Z,21.50
2017-07-10T21:37:59.814Z,21.50
2017-07-10T21:40:28.256Z,21.50
2017-07-10T21:42:56.598Z,21.50
2017-07-10T21:45:24.899Z,21.50
2017-07-10T21:47:54.850Z,21.60
2017-07-10T21:50:23.176Z,21.60
2017-07-10T21:52:52.242Z,21.70
2017-07-10T21:55:20.573Z,21.70
2017-07-10T21:57:48.867Z,21.70
2017-07-10T22:00:17.195Z,21.70
2017-07-10T22:02:45.490Z,21.70
2017-07-10T22:05:13.814Z,21.80
2017-07-10T22:07:42.106Z,21.80
2017-07-10T22:10:10.429Z,21.70
2017-07-10T22:12:38.754Z,21.70
2017-07-10T22:15:07.047Z,21.70
2017-07-10T22:17:35.385Z,21.70
2017-07-10T22:20:03.677Z,21.60
2017-07-10T22:22:32.005Z,21.60
2017-07-10T22:25:00.305Z,21.60
2017-07-10T22:27:28.600Z,21.60
2017-07-10T22:29:56.935Z,21.60
2017-07-10T22:32:25.246Z,21.60
2017-07-10T22:34:53.590Z,21.70
2017-07-10T22:37:21.894Z,21.70
2017-07-10T22:39:50.201Z,21.70
2017-07-10T22:42:18.519Z,21.60
2017-07-10T22:44:46.810Z,21.70
2017-07-10T22:47:15.146Z,21.70
2017-07-10T22:49:43.498Z,21.70
2017-07-10T22:52:11.798Z,21.70
2017-07-10T22:54:40.913Z,21.70
2017-07-10T22:57:09.217Z,21.60
2017-07-10T22:59:38.314Z,21.50
2017-07-10T23:02:06.688Z,21.60
2017-07-10T23:04:34.951Z,21.50
2017-07-10T23:07:03.277Z,21.40
2017-07-10T23:09:31.575Z,21.00
2017-07-10T23:11:59.910Z,21.40
2017-07-10T23:14:28.214Z,21.40
2017-07-10T23:16:56.578Z,21.40
2017-07-10T23:19:24.874Z,21.40
2017-07-10T23:21:53.198Z,21.50
2017-07-10T23:24:21.498Z,21.50
2017-07-10T23:26:49.827Z,21.50
2017-07-10T23:29:18.126Z,21.50
2017-07-10T23:31:46.457Z,21.50
2017-07-10T23:34:14.791Z,21.50
2017-07-10T23:36:43.092Z,21.50
2017-07-10T23:39:11.414Z,21.50
2017-07-10T23:41:39.709Z,21.50
2017-07-10T23:44:08.045Z,21.50
2017-07-10T23:46:36.336Z,21.50
2017-07-10T23:49:04.644Z,21.50
2017-07-10T23:51:32.967Z,21.50
2017-07-10T23:54:01.267Z,21.50
2017-07-10T23:56:29.639Z,21.40
2017-07-10T23:58:57.929Z,21.40
